sensor_id;sensor_type;location;lat;lon;timestamp;temperature;humidity
21895;DHT22;11112;51.270;7.224;2023-03-11T00:00:08;6.20;99.90
21895;DHT22;11112;51.270;7.224;2023-03-11T00:02:41;6.20;99.90
21895;DHT22;11112;51.270;7.224;2023-03-11T00:05:12;6.20;99.90
21895;DHT22;11112;51.270;7.224;2023-03-11T00:07:40;6.20;99.80
21895;DHT22;11112;51.270;7.224;2023-03-11T00:10:10;6.20;99.70
21895;DHT22;11112;51.270;7.224;2023-03-11T00:12:39;6.20;99.70
21895;DHT22;11112;51.270;7.224;2023-03-11T00:15:07;6.20;99.50
21895;DHT22;11112;51.270;7.224;2023-03-11T00:17:36;6.20;99.50
21895;DHT22;11112;51.270;7.224;2023-03-11T00:20:04;6.20;99.50
21895;DHT22;11112;51.270;7.224;2023-03-11T00:22:33;6.20;99.60
21895;DHT22;11112;51.270;7.224;2023-03-11T00:25:00;6.30;99.70
21895;DHT22;11112;51.270;7.224;2023-03-11T00:27:27;6.20;99.20
21895;DHT22;11112;51.270;7.224;2023-03-11T00:29:54;6.20;99.50
21895;DHT22;11112;51.270;7.224;2023-03-11T00:32:21;6.20;99.80
21895;DHT22;11112;51.270;7.224;2023-03-11T00:34:49;6.20;99.70
21895;DHT22;11112;51.270;7.224;2023-03-11T00:37:16;6.20;99.90
21895;DHT22;11112;51.270;7.224;2023-03-11T00:39:43;6.30;99.70
21895;DHT22;11112;51.270;7.224;2023-03-11T00:42:10;6.20;99.70
21895;DHT22;11112;51.270;7.224;2023-03-11T00:44:38;6.30;99.80
21895;DHT22;11112;51.270;7.224;2023-03-11T00:47:05;6.30;99.50
21895;DHT22;11112;51.270;7.224;2023-03-11T00:49:32;6.30;99.70
21895;DHT22;11112;51.270;7.224;2023-03-11T00:52:01;6.30;99.40
21895;DHT22;11112;51.270;7.224;2023-03-11T00:54:28;6.30;99.50
21895;DHT22;11112;51.270;7.224;2023-03-11T00:56:55;6.30;99.40
21895;DHT22;11112;51.270;7.224;2023-03-11T00:59:22;6.30;99.60
21895;DHT22;11112;51.270;7.224;2023-03-11T01:01:49;6.30;99.40
21895;DHT22;11112;51.270;7.224;2023-03-11T01:04:16;6.30;99.50
21895;DHT22;11112;51.270;7.224;2023-03-11T01:06:43;6.30;99.50
21895;DHT22;11112;51.270;7.224;2023-03-11T01:09:12;6.20;99.50
21895;DHT22;11112;51.270;7.224;2023-03-11T01:11:39;6.30;99.40
21895;DHT22;11112;51.270;7.224;2023-03-11T01:14:06;6.30;99.50
21895;DHT22;11112;51.270;7.224;2023-03-11T01:16:33;6.30;99.70
21895;DHT22;11112;51.270;7.224;2023-03-11T01:19:00;6.30;99.40
21895;DHT22;11112;51.270;7.224;2023-03-11T01:21:27;6.30;99.90
21895;DHT22;11112;51.270;7.224;2023-03-11T01:23:54;6.30;99.60
21895;DHT22;11112;51.270;7.224;2023-03-11T01:26:22;6.30;99.20
21895;DHT22;11112;51.270;7.224;2023-03-11T01:28:49;6.30;99.40
21895;DHT22;11112;51.270;7.224;2023-03-11T01:31:16;6.30;99.10
21895;DHT22;11112;51.270;7.224;2023-03-11T01:33:43;6.30;99.20
21895;DHT22;11112;51.270;7.224;2023-03-11T01:36:10;6.40;99.60
21895;DHT22;11112;51.270;7.224;2023-03-11T01:38:37;6.40;99.50
21895;DHT22;11112;51.270;7.224;2023-03-11T01:41:05;6.40;99.30
21895;DHT22;11112;51.270;7.224;2023-03-11T01:46:22;6.30;99.20
21895;DHT22;11112;51.270;7.224;2023-03-11T01:48:52;6.40;99.40
21895;DHT22;11112;51.270;7.224;2023-03-11T01:51:24;6.40;99.20
21895;DHT22;11112;51.270;7.224;2023-03-11T01:53:55;6.40;99.30
21895;DHT22;11112;51.270;7.224;2023-03-11T01:56:23;6.40;99.30
21895;DHT22;11112;51.270;7.224;2023-03-11T01:58:53;6.40;99.50
21895;DHT22;11112;51.270;7.224;2023-03-11T02:01:21;6.40;99.70
21895;DHT22;11112;51.270;7.224;2023-03-11T02:03:50;6.50;99.90
21895;DHT22;11112;51.270;7.224;2023-03-11T02:06:19;6.50;99.80
21895;DHT22;11112;51.270;7.224;2023-03-11T02:08:49;6.50;99.70
21895;DHT22;11112;51.270;7.224;2023-03-11T02:11:19;6.50;99.70
21895;DHT22;11112;51.270;7.224;2023-03-11T02:13:49;6.40;99.70
21895;DHT22;11112;51.270;7.224;2023-03-11T02:16:18;6.40;99.90
21895;DHT22;11112;51.270;7.224;2023-03-11T02:18:45;6.40;99.90
21895;DHT22;11112;51.270;7.224;2023-03-11T02:21:22;6.40;99.90
21895;DHT22;11112;51.270;7.224;2023-03-11T02:23:56;6.40;99.90
21895;DHT22;11112;51.270;7.224;2023-03-11T02:26:33;6.40;99.90
21895;DHT22;11112;51.270;7.224;2023-03-11T02:29:05;6.40;99.90
21895;DHT22;11112;51.270;7.224;2023-03-11T02:31:34;6.30;99.90
21895;DHT22;11112;51.270;7.224;2023-03-11T02:34:03;6.30;99.60
21895;DHT22;11112;51.270;7.224;2023-03-11T02:36:37;6.30;99.80
21895;DHT22;11112;51.270;7.224;2023-03-11T02:39:07;6.30;99.60
21895;DHT22;11112;51.270;7.224;2023-03-11T02:41:36;6.30;99.80
21895;DHT22;11112;51.270;7.224;2023-03-11T02:44:08;6.30;99.50
21895;DHT22;11112;51.270;7.224;2023-03-11T02:46:38;6.20;99.20
21895;DHT22;11112;51.270;7.224;2023-03-11T02:49:07;6.20;99.50
21895;DHT22;11112;51.270;7.224;2023-03-11T02:51:34;6.20;99.70
21895;DHT22;11112;51.270;7.224;2023-03-11T02:54:04;6.20;99.60
21895;DHT22;11112;51.270;7.224;2023-03-11T02:56:31;6.10;99.80
21895;DHT22;11112;51.270;7.224;2023-03-11T02:58:58;6.20;99.90
21895;DHT22;11112;51.270;7.224;2023-03-11T03:01:27;6.20;99.90
21895;DHT22;11112;51.270;7.224;2023-03-11T03:03:54;6.30;99.90
21895;DHT22;11112;51.270;7.224;2023-03-11T03:06:21;6.30;99.90
21895;DHT22;11112;51.270;7.224;2023-03-11T03:08:49;6.30;99.60
21895;DHT22;11112;51.270;7.224;2023-03-11T03:11:16;6.30;99.40
21895;DHT22;11112;51.270;7.224;2023-03-11T03:13:43;6.30;99.20
21895;DHT22;11112;51.270;7.224;2023-03-11T03:16:11;6.30;99.20
21895;DHT22;11112;51.270;7.224;2023-03-11T03:18:39;6.30;99.10
21895;DHT22;11112;51.270;7.224;2023-03-11T03:21:06;6.30;99.30
21895;DHT22;11112;51.270;7.224;2023-03-11T03:23:33;6.30;99.10
21895;DHT22;11112;51.270;7.224;2023-03-11T03:26:02;6.30;98.80
21895;DHT22;11112;51.270;7.224;2023-03-11T03:28:29;6.20;98.80
21895;DHT22;11112;51.270;7.224;2023-03-11T03:31:03;6.20;98.70
21895;DHT22;11112;51.270;7.224;2023-03-11T03:33:30;6.20;98.50
21895;DHT22;11112;51.270;7.224;2023-03-11T03:35:59;6.20;99.10
21895;DHT22;11112;51.270;7.224;2023-03-11T03:38:26;6.20;98.50
21895;DHT22;11112;51.270;7.224;2023-03-11T03:40:53;6.20;98.60
21895;DHT22;11112;51.270;7.224;2023-03-11T03:43:20;6.20;98.40
21895;DHT22;11112;51.270;7.224;2023-03-11T03:45:54;6.20;98.30
21895;DHT22;11112;51.270;7.224;2023-03-11T03:48:22;6.10;98.20
21895;DHT22;11112;51.270;7.224;2023-03-11T03:50:49;6.20;98.40
21895;DHT22;11112;51.270;7.224;2023-03-11T03:53:18;6.20;98.20
21895;DHT22;11112;51.270;7.224;2023-03-11T03:55:45;6.20;98.10
21895;DHT22;11112;51.270;7.224;2023-03-11T03:58:12;6.20;98.10
21895;DHT22;11112;51.270;7.224;2023-03-11T04:00:39;6.20;98.30
21895;DHT22;11112;51.270;7.224;2023-03-11T04:03:06;6.20;98.10
21895;DHT22;11112;51.270;7.224;2023-03-11T04:05:33;6.10;98.00
21895;DHT22;11112;51.270;7.224;2023-03-11T04:08:01;6.20;97.90
21895;DHT22;11112;51.270;7.224;2023-03-11T04:10:29;6.10;97.80
21895;DHT22;11112;51.270;7.224;2023-03-11T04:12:56;6.10;97.80
21895;DHT22;11112;51.270;7.224;2023-03-11T04:15:23;6.10;97.90
21895;DHT22;11112;51.270;7.224;2023-03-11T04:17:50;6.10;97.90
21895;DHT22;11112;51.270;7.224;2023-03-11T04:20:17;6.10;97.80
21895;DHT22;11112;51.270;7.224;2023-03-11T04:22:45;6.10;97.80
21895;DHT22;11112;51.270;7.224;2023-03-11T04:25:12;6.10;97.60
21895;DHT22;11112;51.270;7.224;2023-03-11T04:27:40;6.10;97.60
21895;DHT22;11112;51.270;7.224;2023-03-11T04:30:11;6.20;98.20
21895;DHT22;11112;51.270;7.224;2023-03-11T04:32:39;6.20;97.60
21895;DHT22;11112;51.270;7.224;2023-03-11T04:35:06;6.20;97.50
21895;DHT22;11112;51.270;7.224;2023-03-11T04:37:34;6.20;97.80
21895;DHT22;11112;51.270;7.224;2023-03-11T04:40:01;6.20;97.50
21895;DHT22;11112;51.270;7.224;2023-03-11T04:42:30;6.20;97.60
21895;DHT22;11112;51.270;7.224;2023-03-11T04:44:59;6.10;97.50
21895;DHT22;11112;51.270;7.224;2023-03-11T04:47:27;6.20;97.70
21895;DHT22;11112;51.270;7.224;2023-03-11T04:49:54;6.20;97.50
21895;DHT22;11112;51.270;7.224;2023-03-11T04:52:21;6.10;97.50
21895;DHT22;11112;51.270;7.224;2023-03-11T04:54:48;6.10;97.60
21895;DHT22;11112;51.270;7.224;2023-03-11T04:57:16;6.10;97.50
21895;DHT22;11112;51.270;7.224;2023-03-11T04:59:43;6.20;97.80
21895;DHT22;11112;51.270;7.224;2023-03-11T05:02:11;6.20;97.60
21895;DHT22;11112;51.270;7.224;2023-03-11T05:04:39;6.10;97.50
21895;DHT22;11112;51.270;7.224;2023-03-11T05:07:07;6.10;97.40
21895;DHT22;11112;51.270;7.224;2023-03-11T05:09:34;6.10;97.40
21895;DHT22;11112;51.270;7.224;2023-03-11T05:12:01;6.10;97.60
21895;DHT22;11112;51.270;7.224;2023-03-11T05:14:28;6.10;97.10
21895;DHT22;11112;51.270;7.224;2023-03-11T05:16:56;6.10;97.30
21895;DHT22;11112;51.270;7.224;2023-03-11T05:19:24;6.10;97.70
21895;DHT22;11112;51.270;7.224;2023-03-11T05:21:59;6.10;97.30
21895;DHT22;11112;51.270;7.224;2023-03-11T05:24:28;6.10;97.20
21895;DHT22;11112;51.270;7.224;2023-03-11T05:26:55;6.10;97.20
21895;DHT22;11112;51.270;7.224;2023-03-11T05:29:23;6.10;97.30
21895;DHT22;11112;51.270;7.224;2023-03-11T05:31:51;6.10;97.20
21895;DHT22;11112;51.270;7.224;2023-03-11T05:34:18;6.10;97.40
21895;DHT22;11112;51.270;7.224;2023-03-11T05:36:47;6.10;97.40
21895;DHT22;11112;51.270;7.224;2023-03-11T05:39:14;6.10;97.30
21895;DHT22;11112;51.270;7.224;2023-03-11T05:41:41;6.10;97.60
21895;DHT22;11112;51.270;7.224;2023-03-11T05:44:08;6.10;97.60
21895;DHT22;11112;51.270;7.224;2023-03-11T05:46:35;6.10;97.40
21895;DHT22;11112;51.270;7.224;2023-03-11T05:49:02;6.10;97.30
21895;DHT22;11112;51.270;7.224;2023-03-11T05:51:30;6.10;97.10
21895;DHT22;11112;51.270;7.224;2023-03-11T05:53:59;6.10;97.10
21895;DHT22;11112;51.270;7.224;2023-03-11T05:56:26;6.10;97.00
21895;DHT22;11112;51.270;7.224;2023-03-11T05:58:56;6.10;97.50
21895;DHT22;11112;51.270;7.224;2023-03-11T06:01:23;6.10;97.10
21895;DHT22;11112;51.270;7.224;2023-03-11T06:03:50;6.00;96.90
21895;DHT22;11112;51.270;7.224;2023-03-11T06:06:17;6.10;97.10
21895;DHT22;11112;51.270;7.224;2023-03-11T06:08:44;6.10;97.00
21895;DHT22;11112;51.270;7.224;2023-03-11T06:11:16;6.00;96.90
21895;DHT22;11112;51.270;7.224;2023-03-11T06:13:43;6.10;97.10
21895;DHT22;11112;51.270;7.224;2023-03-11T06:16:10;6.00;96.90
21895;DHT22;11112;51.270;7.224;2023-03-11T06:18:38;6.00;97.00
21895;DHT22;11112;51.270;7.224;2023-03-11T06:21:05;6.00;97.10
21895;DHT22;11112;51.270;7.224;2023-03-11T06:23:33;6.00;97.10
21895;DHT22;11112;51.270;7.224;2023-03-11T06:26:01;6.10;97.30
21895;DHT22;11112;51.270;7.224;2023-03-11T06:28:31;6.10;97.20
21895;DHT22;11112;51.270;7.224;2023-03-11T06:31:06;6.10;97.40
21895;DHT22;11112;51.270;7.224;2023-03-11T06:33:34;6.10;97.80
21895;DHT22;11112;51.270;7.224;2023-03-11T06:36:02;6.10;97.10
21895;DHT22;11112;51.270;7.224;2023-03-11T06:38:31;6.20;97.10
21895;DHT22;11112;51.270;7.224;2023-03-11T06:40:59;6.10;96.80
21895;DHT22;11112;51.270;7.224;2023-03-11T06:43:26;6.10;97.00
21895;DHT22;11112;51.270;7.224;2023-03-11T06:45:54;6.10;97.00
21895;DHT22;11112;51.270;7.224;2023-03-11T06:48:22;6.10;97.00
21895;DHT22;11112;51.270;7.224;2023-03-11T06:50:56;6.10;96.90
21895;DHT22;11112;51.270;7.224;2023-03-11T06:53:24;6.10;97.00
21895;DHT22;11112;51.270;7.224;2023-03-11T06:55:59;6.10;97.10
21895;DHT22;11112;51.270;7.224;2023-03-11T06:58:27;6.10;97.10
21895;DHT22;11112;51.270;7.224;2023-03-11T07:00:59;6.10;97.00
21895;DHT22;11112;51.270;7.224;2023-03-11T07:03:27;6.10;97.00
21895;DHT22;11112;51.270;7.224;2023-03-11T07:05:55;6.10;96.70
21895;DHT22;11112;51.270;7.224;2023-03-11T07:08:23;6.10;96.70
21895;DHT22;11112;51.270;7.224;2023-03-11T07:10:59;6.10;96.50
21895;DHT22;11112;51.270;7.224;2023-03-11T07:13:27;6.10;96.70
21895;DHT22;11112;51.270;7.224;2023-03-11T07:16:04;6.10;96.60
21895;DHT22;11112;51.270;7.224;2023-03-11T07:18:33;6.10;96.80
21895;DHT22;11112;51.270;7.224;2023-03-11T07:21:02;6.10;96.80
21895;DHT22;11112;51.270;7.224;2023-03-11T07:23:32;6.20;97.00
21895;DHT22;11112;51.270;7.224;2023-03-11T07:26:00;6.20;96.90
21895;DHT22;11112;51.270;7.224;2023-03-11T07:28:28;6.20;96.90
21895;DHT22;11112;51.270;7.224;2023-03-11T07:30:57;6.20;96.90
21895;DHT22;11112;51.270;7.224;2023-03-11T07:33:29;6.20;96.70
21895;DHT22;11112;51.270;7.224;2023-03-11T07:35:58;6.20;96.30
21895;DHT22;11112;51.270;7.224;2023-03-11T07:38:30;6.20;96.40
21895;DHT22;11112;51.270;7.224;2023-03-11T07:40:57;6.20;96.30
21895;DHT22;11112;51.270;7.224;2023-03-11T07:43:25;6.20;96.40
21895;DHT22;11112;51.270;7.224;2023-03-11T07:46:02;6.20;96.80
21895;DHT22;11112;51.270;7.224;2023-03-11T07:48:34;6.20;96.40
21895;DHT22;11112;51.270;7.224;2023-03-11T07:51:05;6.20;96.20
21895;DHT22;11112;51.270;7.224;2023-03-11T07:53:33;6.20;96.40
21895;DHT22;11112;51.270;7.224;2023-03-11T07:56:01;6.20;96.20
21895;DHT22;11112;51.270;7.224;2023-03-11T07:58:29;6.20;96.00
21895;DHT22;11112;51.270;7.224;2023-03-11T08:01:01;6.20;96.10
21895;DHT22;11112;51.270;7.224;2023-03-11T08:03:29;6.20;96.20
21895;DHT22;11112;51.270;7.224;2023-03-11T08:05:57;6.30;96.20
21895;DHT22;11112;51.270;7.224;2023-03-11T08:08:25;6.30;96.40
21895;DHT22;11112;51.270;7.224;2023-03-11T08:10:52;6.30;96.40
21895;DHT22;11112;51.270;7.224;2023-03-11T08:13:20;6.30;96.50
21895;DHT22;11112;51.270;7.224;2023-03-11T08:15:47;6.30;96.60
21895;DHT22;11112;51.270;7.224;2023-03-11T08:18:14;6.30;96.40
21895;DHT22;11112;51.270;7.224;2023-03-11T08:20:41;6.30;96.40
21895;DHT22;11112;51.270;7.224;2023-03-11T08:23:11;6.30;96.40
21895;DHT22;11112;51.270;7.224;2023-03-11T08:25:38;6.30;96.40
21895;DHT22;11112;51.270;7.224;2023-03-11T08:28:06;6.40;96.50
21895;DHT22;11112;51.270;7.224;2023-03-11T08:30:35;6.40;96.30
21895;DHT22;11112;51.270;7.224;2023-03-11T08:33:02;6.40;96.20
21895;DHT22;11112;51.270;7.224;2023-03-11T08:35:30;6.40;96.10
21895;DHT22;11112;51.270;7.224;2023-03-11T08:37:58;6.40;96.00
21895;DHT22;11112;51.270;7.224;2023-03-11T08:40:27;6.40;96.20
21895;DHT22;11112;51.270;7.224;2023-03-11T08:42:54;6.40;96.40
21895;DHT22;11112;51.270;7.224;2023-03-11T08:45:22;6.50;96.20
21895;DHT22;11112;51.270;7.224;2023-03-11T08:47:49;6.50;95.80
21895;DHT22;11112;51.270;7.224;2023-03-11T08:50:18;6.50;95.40
21895;DHT22;11112;51.270;7.224;2023-03-11T08:52:45;6.50;95.60
21895;DHT22;11112;51.270;7.224;2023-03-11T08:55:14;6.50;95.40
21895;DHT22;11112;51.270;7.224;2023-03-11T08:57:44;6.50;95.20
21895;DHT22;11112;51.270;7.224;2023-03-11T09:00:12;6.50;94.50
21895;DHT22;11112;51.270;7.224;2023-03-11T09:02:39;6.60;94.40
21895;DHT22;11112;51.270;7.224;2023-03-11T09:05:08;6.60;94.40
21895;DHT22;11112;51.270;7.224;2023-03-11T09:07:36;6.70;93.80
21895;DHT22;11112;51.270;7.224;2023-03-11T09:10:04;6.70;93.90
21895;DHT22;11112;51.270;7.224;2023-03-11T09:12:32;6.80;93.70
21895;DHT22;11112;51.270;7.224;2023-03-11T09:15:01;6.80;93.50
21895;DHT22;11112;51.270;7.224;2023-03-11T09:17:28;6.70;93.30
21895;DHT22;11112;51.270;7.224;2023-03-11T09:19:56;6.80;93.20
21895;DHT22;11112;51.270;7.224;2023-03-11T09:22:23;6.90;93.10
21895;DHT22;11112;51.270;7.224;2023-03-11T09:24:50;6.90;93.70
21895;DHT22;11112;51.270;7.224;2023-03-11T09:27:17;7.00;93.70
21895;DHT22;11112;51.270;7.224;2023-03-11T09:29:45;7.00;93.60
21895;DHT22;11112;51.270;7.224;2023-03-11T09:32:13;7.10;92.90
21895;DHT22;11112;51.270;7.224;2023-03-11T09:34:41;7.10;92.50
21895;DHT22;11112;51.270;7.224;2023-03-11T09:37:08;7.10;91.20
21895;DHT22;11112;51.270;7.224;2023-03-11T09:39:35;7.10;91.10
21895;DHT22;11112;51.270;7.224;2023-03-11T09:42:13;7.10;90.20
21895;DHT22;11112;51.270;7.224;2023-03-11T09:44:50;7.10;89.20
21895;DHT22;11112;51.270;7.224;2023-03-11T09:47:30;7.10;89.90
21895;DHT22;11112;51.270;7.224;2023-03-11T09:50:13;7.10;89.90
21895;DHT22;11112;51.270;7.224;2023-03-11T09:52:45;7.20;90.20
21895;DHT22;11112;51.270;7.224;2023-03-11T09:55:27;7.20;90.00
21895;DHT22;11112;51.270;7.224;2023-03-11T09:58:01;7.20;89.40
21895;DHT22;11112;51.270;7.224;2023-03-11T10:00:30;7.20;88.90
21895;DHT22;11112;51.270;7.224;2023-03-11T10:03:00;7.10;90.00
21895;DHT22;11112;51.270;7.224;2023-03-11T10:05:28;7.00;89.80
21895;DHT22;11112;51.270;7.224;2023-03-11T10:08:00;6.90;85.20
21895;DHT22;11112;51.270;7.224;2023-03-11T10:10:32;6.80;87.20
21895;DHT22;11112;51.270;7.224;2023-03-11T10:13:09;6.90;89.30
21895;DHT22;11112;51.270;7.224;2023-03-11T10:15:41;7.00;88.40
21895;DHT22;11112;51.270;7.224;2023-03-11T10:18:27;7.00;87.20
21895;DHT22;11112;51.270;7.224;2023-03-11T10:21:00;7.00;87.70
21895;DHT22;11112;51.270;7.224;2023-03-11T10:23:37;7.00;87.80
21895;DHT22;11112;51.270;7.224;2023-03-11T10:26:18;7.10;87.50
21895;DHT22;11112;51.270;7.224;2023-03-11T10:28:50;7.20;89.90
21895;DHT22;11112;51.270;7.224;2023-03-11T10:31:22;7.20;88.10
21895;DHT22;11112;51.270;7.224;2023-03-11T10:33:55;7.20;86.40
21895;DHT22;11112;51.270;7.224;2023-03-11T10:36:27;7.20;87.50
21895;DHT22;11112;51.270;7.224;2023-03-11T10:39:00;7.10;87.80
21895;DHT22;11112;51.270;7.224;2023-03-11T10:41:29;7.10;89.00
21895;DHT22;11112;51.270;7.224;2023-03-11T10:44:05;7.10;87.30
21895;DHT22;11112;51.270;7.224;2023-03-11T10:46:33;7.00;86.40
21895;DHT22;11112;51.270;7.224;2023-03-11T10:49:01;7.00;87.70
21895;DHT22;11112;51.270;7.224;2023-03-11T10:51:33;7.00;86.70
21895;DHT22;11112;51.270;7.224;2023-03-11T10:54:01;6.90;86.90
21895;DHT22;11112;51.270;7.224;2023-03-11T10:56:32;6.90;87.80
21895;DHT22;11112;51.270;7.224;2023-03-11T10:59:00;6.90;86.70
21895;DHT22;11112;51.270;7.224;2023-03-11T11:01:29;7.00;87.80
21895;DHT22;11112;51.270;7.224;2023-03-11T11:04:00;7.00;88.10
21895;DHT22;11112;51.270;7.224;2023-03-11T11:06:30;7.10;88.10
21895;DHT22;11112;51.270;7.224;2023-03-11T11:09:13;7.20;87.90
21895;DHT22;11112;51.270;7.224;2023-03-11T11:11:43;7.20;86.80
21895;DHT22;11112;51.270;7.224;2023-03-11T11:14:41;7.20;85.30
21895;DHT22;11112;51.270;7.224;2023-03-11T11:17:16;7.20;83.50
21895;DHT22;11112;51.270;7.224;2023-03-11T11:19:47;7.10;83.50
21895;DHT22;11112;51.270;7.224;2023-03-11T11:22:17;7.20;84.40
21895;DHT22;11112;51.270;7.224;2023-03-11T11:24:47;7.20;83.30
21895;DHT22;11112;51.270;7.224;2023-03-11T11:27:18;7.10;81.90
21895;DHT22;11112;51.270;7.224;2023-03-11T11:29:47;7.20;83.50
21895;DHT22;11112;51.270;7.224;2023-03-11T11:32:27;7.20;85.10
21895;DHT22;11112;51.270;7.224;2023-03-11T11:34:59;7.30;84.00
21895;DHT22;11112;51.270;7.224;2023-03-11T11:37:29;7.40;83.40
21895;DHT22;11112;51.270;7.224;2023-03-11T11:40:00;7.40;82.30
21895;DHT22;11112;51.270;7.224;2023-03-11T11:42:36;7.40;79.90
21895;DHT22;11112;51.270;7.224;2023-03-11T11:45:11;7.50;82.00
21895;DHT22;11112;51.270;7.224;2023-03-11T11:47:43;7.50;83.40
21895;DHT22;11112;51.270;7.224;2023-03-11T11:50:19;7.50;82.00
21895;DHT22;11112;51.270;7.224;2023-03-11T11:52:55;7.50;80.10
21895;DHT22;11112;51.270;7.224;2023-03-11T11:55:27;7.50;78.90
21895;DHT22;11112;51.270;7.224;2023-03-11T11:57:56;7.50;79.90
21895;DHT22;11112;51.270;7.224;2023-03-11T12:00:36;7.50;81.90
21895;DHT22;11112;51.270;7.224;2023-03-11T12:06:16;7.60;84.10
21895;DHT22;11112;51.270;7.224;2023-03-11T12:08:53;7.50;82.00
21895;DHT22;11112;51.270;7.224;2023-03-11T12:11:31;7.50;83.00
21895;DHT22;11112;51.270;7.224;2023-03-11T12:14:04;7.50;80.50
21895;DHT22;11112;51.270;7.224;2023-03-11T12:16:40;7.50;79.70
21895;DHT22;11112;51.270;7.224;2023-03-11T12:19:22;7.50;79.90
21895;DHT22;11112;51.270;7.224;2023-03-11T12:22:22;7.50;79.20
21895;DHT22;11112;51.270;7.224;2023-03-11T12:25:07;7.60;80.70
21895;DHT22;11112;51.270;7.224;2023-03-11T12:27:49;7.60;78.20
21895;DHT22;11112;51.270;7.224;2023-03-11T12:30:22;7.50;75.30
21895;DHT22;11112;51.270;7.224;2023-03-11T12:32:55;7.40;77.70
21895;DHT22;11112;51.270;7.224;2023-03-11T12:35:24;7.50;78.10
21895;DHT22;11112;51.270;7.224;2023-03-11T12:38:05;7.60;78.90
21895;DHT22;11112;51.270;7.224;2023-03-11T12:41:01;7.60;79.10
21895;DHT22;11112;51.270;7.224;2023-03-11T12:47:17;7.60;77.00
21895;DHT22;11112;51.270;7.224;2023-03-11T12:49:50;7.60;76.90
21895;DHT22;11112;51.270;7.224;2023-03-11T12:52:28;7.60;77.90
21895;DHT22;11112;51.270;7.224;2023-03-11T12:55:27;7.60;77.40
21895;DHT22;11112;51.270;7.224;2023-03-11T12:58:10;7.60;77.90
21895;DHT22;11112;51.270;7.224;2023-03-11T13:01:38;7.60;76.80
21895;DHT22;11112;51.270;7.224;2023-03-11T13:04:29;7.70;77.50
21895;DHT22;11112;51.270;7.224;2023-03-11T13:07:40;7.60;76.70
21895;DHT22;11112;51.270;7.224;2023-03-11T13:10:19;7.60;78.50
21895;DHT22;11112;51.270;7.224;2023-03-11T13:13:01;7.70;77.10
21895;DHT22;11112;51.270;7.224;2023-03-11T13:15:34;7.60;76.10
21895;DHT22;11112;51.270;7.224;2023-03-11T13:18:21;7.70;75.90
21895;DHT22;11112;51.270;7.224;2023-03-11T13:20:53;7.70;76.20
21895;DHT22;11112;51.270;7.224;2023-03-11T13:23:31;7.70;76.50
21895;DHT22;11112;51.270;7.224;2023-03-11T13:26:38;7.70;75.90
21895;DHT22;11112;51.270;7.224;2023-03-11T13:29:41;7.70;76.70
21895;DHT22;11112;51.270;7.224;2023-03-11T13:32:33;7.70;77.70
21895;DHT22;11112;51.270;7.224;2023-03-11T13:35:22;7.70;75.60
21895;DHT22;11112;51.270;7.224;2023-03-11T13:38:16;7.80;75.00
21895;DHT22;11112;51.270;7.224;2023-03-11T13:40:55;7.70;73.10
21895;DHT22;11112;51.270;7.224;2023-03-11T13:43:25;7.70;74.70
21895;DHT22;11112;51.270;7.224;2023-03-11T13:45:55;7.70;76.30
21895;DHT22;11112;51.270;7.224;2023-03-11T13:48:27;7.70;76.70
21895;DHT22;11112;51.270;7.224;2023-03-11T13:50:59;7.80;76.20
21895;DHT22;11112;51.270;7.224;2023-03-11T13:53:30;7.80;75.50
21895;DHT22;11112;51.270;7.224;2023-03-11T13:56:00;7.80;72.00
21895;DHT22;11112;51.270;7.224;2023-03-11T13:58:28;7.70;74.70
21895;DHT22;11112;51.270;7.224;2023-03-11T14:00:57;7.70;75.10
21895;DHT22;11112;51.270;7.224;2023-03-11T14:03:26;7.80;75.60
21895;DHT22;11112;51.270;7.224;2023-03-11T14:06:00;7.80;75.70
21895;DHT22;11112;51.270;7.224;2023-03-11T14:08:30;7.70;75.20
21895;DHT22;11112;51.270;7.224;2023-03-11T14:11:00;7.70;75.50
21895;DHT22;11112;51.270;7.224;2023-03-11T14:13:31;7.70;75.10
21895;DHT22;11112;51.270;7.224;2023-03-11T14:16:02;7.70;74.60
21895;DHT22;11112;51.270;7.224;2023-03-11T14:18:36;7.70;73.90
21895;DHT22;11112;51.270;7.224;2023-03-11T14:21:09;7.70;73.50
21895;DHT22;11112;51.270;7.224;2023-03-11T14:23:40;7.70;74.30
21895;DHT22;11112;51.270;7.224;2023-03-11T14:26:12;7.70;74.00
21895;DHT22;11112;51.270;7.224;2023-03-11T14:28:44;7.70;73.90
21895;DHT22;11112;51.270;7.224;2023-03-11T14:31:22;7.80;75.70
21895;DHT22;11112;51.270;7.224;2023-03-11T14:33:56;7.80;73.10
21895;DHT22;11112;51.270;7.224;2023-03-11T14:36:29;7.70;72.80
21895;DHT22;11112;51.270;7.224;2023-03-11T14:38:57;7.80;72.30
21895;DHT22;11112;51.270;7.224;2023-03-11T14:41:24;7.80;72.90
21895;DHT22;11112;51.270;7.224;2023-03-11T14:43:53;7.80;71.90
21895;DHT22;11112;51.270;7.224;2023-03-11T14:46:24;7.70;71.80
21895;DHT22;11112;51.270;7.224;2023-03-11T14:48:54;7.80;73.60
21895;DHT22;11112;51.270;7.224;2023-03-11T14:51:26;7.80;73.00
21895;DHT22;11112;51.270;7.224;2023-03-11T14:54:04;7.80;70.90
21895;DHT22;11112;51.270;7.224;2023-03-11T14:56:34;7.80;71.50
21895;DHT22;11112;51.270;7.224;2023-03-11T14:59:09;7.80;69.10
21895;DHT22;11112;51.270;7.224;2023-03-11T15:01:38;7.80;67.90
21895;DHT22;11112;51.270;7.224;2023-03-11T15:04:10;7.80;68.20
21895;DHT22;11112;51.270;7.224;2023-03-11T15:06:39;7.80;68.00
21895;DHT22;11112;51.270;7.224;2023-03-11T15:09:10;7.70;68.10
21895;DHT22;11112;51.270;7.224;2023-03-11T15:11:48;7.80;67.90
21895;DHT22;11112;51.270;7.224;2023-03-11T15:14:21;7.80;69.90
21895;DHT22;11112;51.270;7.224;2023-03-11T15:16:49;7.80;69.80
21895;DHT22;11112;51.270;7.224;2023-03-11T15:19:30;7.80;70.30
21895;DHT22;11112;51.270;7.224;2023-03-11T15:22:05;7.80;71.30
21895;DHT22;11112;51.270;7.224;2023-03-11T15:24:48;7.80;70.10
21895;DHT22;11112;51.270;7.224;2023-03-11T15:27:19;7.80;69.40
21895;DHT22;11112;51.270;7.224;2023-03-11T15:29:54;7.80;71.40
21895;DHT22;11112;51.270;7.224;2023-03-11T15:32:35;7.90;71.40
21895;DHT22;11112;51.270;7.224;2023-03-11T15:35:14;7.90;69.50
21895;DHT22;11112;51.270;7.224;2023-03-11T15:37:44;7.80;67.20
21895;DHT22;11112;51.270;7.224;2023-03-11T15:40:20;7.70;67.30
21895;DHT22;11112;51.270;7.224;2023-03-11T15:43:16;7.70;68.30
21895;DHT22;11112;51.270;7.224;2023-03-11T15:45:47;7.70;71.60
21895;DHT22;11112;51.270;7.224;2023-03-11T15:48:15;7.70;71.00
21895;DHT22;11112;51.270;7.224;2023-03-11T15:50:46;7.80;70.30
21895;DHT22;11112;51.270;7.224;2023-03-11T15:53:15;7.70;71.70
21895;DHT22;11112;51.270;7.224;2023-03-11T15:55:42;7.80;72.50
21895;DHT22;11112;51.270;7.224;2023-03-11T15:58:14;7.80;72.40
21895;DHT22;11112;51.270;7.224;2023-03-11T16:00:47;7.80;72.40
21895;DHT22;11112;51.270;7.224;2023-03-11T16:03:16;7.80;73.00
21895;DHT22;11112;51.270;7.224;2023-03-11T16:05:43;7.80;71.30
21895;DHT22;11112;51.270;7.224;2023-03-11T16:08:10;7.80;71.60
21895;DHT22;11112;51.270;7.224;2023-03-11T16:10:38;7.90;72.50
21895;DHT22;11112;51.270;7.224;2023-03-11T16:13:05;7.80;72.20
21895;DHT22;11112;51.270;7.224;2023-03-11T16:15:34;7.80;70.70
21895;DHT22;11112;51.270;7.224;2023-03-11T16:18:05;7.80;70.70